Angmagssalik, Greenland
Current Conditions -  °F | °C
As of 1:50 AM on Friday 19 Dec 2014 (Local Time) from BGKK Reporting Station
Broken Clouds Broken Clouds  
Wind Chill: 18°   Ceiling: 4900
Heat Index: 30°   Visibility: 6mi
Dew Point:   Wind: 20mph
Humidity: 40%   Direction: 70°ENE
Pressure: 29.29"   Gusts: NA
Location:  65.61°N, 37.68°W
Report Text: BGKK 190350Z AUTO 07017KT 9999NDV BKN049/// M01/M13 Q0992
Loading
Personal Weather Stations






























Interactive Weather Map New forecast layout! Learn more

10-Day Weather Forecast

Advertisements
Track Severe Weather on mobile